createdAt,value
2022-08-17T00:00:35.041Z,21.86
2022-08-17T00:03:06.724Z,21.85
2022-08-17T00:05:37.636Z,21.85
2022-08-17T00:08:07.060Z,21.86
2022-08-17T00:10:35.695Z,21.81
2022-08-17T00:13:08.083Z,21.78
2022-08-17T00:15:36.459Z,21.81
2022-08-17T00:18:53.770Z,21.81
2022-08-17T00:20:53.232Z,21.78
2022-08-17T00:23:23.277Z,21.67
2022-08-17T00:25:51.830Z,21.77
2022-08-17T00:28:21.022Z,21.70
2022-08-17T00:30:51.360Z,21.73
2022-08-17T00:33:24.217Z,21.74
2022-08-17T00:35:52.973Z,21.71
2022-08-17T00:38:22.849Z,21.65
2022-08-17T00:40:55.777Z,21.68
2022-08-17T00:43:32.192Z,21.62
2022-08-17T00:46:01.936Z,21.57
2022-08-17T00:48:30.852Z,21.58
2022-08-17T00:51:09.605Z,21.57
2022-08-17T00:53:41.989Z,21.54
2022-08-17T00:56:14.847Z,21.55
2022-08-17T00:58:43.296Z,21.53
2022-08-17T01:01:21.419Z,21.50
2022-08-17T01:03:51.891Z,21.48
2022-08-17T01:06:20.792Z,21.45
2022-08-17T01:08:57.569Z,21.41
2022-08-17T01:11:26.064Z,21.40
2022-08-17T01:13:54.518Z,21.36
2022-08-17T01:16:25.599Z,21.35
2022-08-17T01:18:56.529Z,21.33
2022-08-17T01:21:30.751Z,21.28
2022-08-17T01:24:01.220Z,21.27
2022-08-17T01:26:30.955Z,21.26
2022-08-17T01:28:59.225Z,21.26
2022-08-17T01:31:32.015Z,21.28
2022-08-17T01:34:02.635Z,21.18
2022-08-17T01:36:30.701Z,21.21
2022-08-17T01:39:00.232Z,21.22
2022-08-17T01:41:29.515Z,21.27
2022-08-17T01:44:03.210Z,21.21
2022-08-17T01:46:32.361Z,21.05
2022-08-17T01:49:01.737Z,21.18
2022-08-17T01:51:33.027Z,21.16
2022-08-17T01:54:06.294Z,21.16
2022-08-17T01:56:36.237Z,21.13
2022-08-17T01:59:04.705Z,21.12
2022-08-17T02:01:34.930Z,21.11
2022-08-17T02:04:04.162Z,21.08
2022-08-17T02:06:53.765Z,21.02
2022-08-17T02:09:25.432Z,21.07
2022-08-17T02:11:54.330Z,21.08
2022-08-17T02:14:22.827Z,21.09
2022-08-17T02:16:51.263Z,21.07
2022-08-17T02:19:19.805Z,21.08
2022-08-17T02:21:50.799Z,21.06
2022-08-17T02:24:58.534Z,21.10
2022-08-17T02:27:11.552Z,21.08
2022-08-17T02:29:39.624Z,21.07
2022-08-17T02:32:08.766Z,20.99
2022-08-17T02:34:36.798Z,20.88
2022-08-17T02:37:04.837Z,20.91
2022-08-17T02:39:32.921Z,20.88
2022-08-17T02:42:05.077Z,20.84
2022-08-17T02:44:38.806Z,20.90
2022-08-17T02:47:09.002Z,20.95
2022-08-17T02:49:37.387Z,20.92
2022-08-17T02:52:07.071Z,20.88
2022-08-17T02:54:41.340Z,20.88
2022-08-17T02:57:10.576Z,20.87
2022-08-17T02:59:41.628Z,20.93
2022-08-17T03:02:13.038Z,20.93
2022-08-17T03:04:41.126Z,20.91
2022-08-17T03:07:09.142Z,20.88
2022-08-17T03:09:37.241Z,20.87
2022-08-17T03:12:07.456Z,20.88
2022-08-17T03:14:41.443Z,20.83
2022-08-17T03:17:11.337Z,20.75
2022-08-17T03:19:45.435Z,20.72
2022-08-17T03:22:34.737Z,20.74
2022-08-17T03:25:01.495Z,20.74
2022-08-17T03:27:30.269Z,20.71
2022-08-17T03:29:59.617Z,20.67
2022-08-17T03:32:27.609Z,20.70
2022-08-17T03:34:59.611Z,20.70
2022-08-17T03:37:27.718Z,20.71
2022-08-17T03:39:55.817Z,20.70
2022-08-17T03:42:32.225Z,20.71
2022-08-17T03:45:03.485Z,20.72
2022-08-17T03:47:48.878Z,20.78
2022-08-17T03:50:34.514Z,20.80
2022-08-17T03:53:23.331Z,20.76
2022-08-17T03:56:08.827Z,20.71
2022-08-17T03:58:37.493Z,20.77
2022-08-17T04:01:08.165Z,20.79
2022-08-17T04:03:36.818Z,20.68
2022-08-17T04:06:05.653Z,20.70
2022-08-17T04:08:33.957Z,20.77
2022-08-17T04:11:02.350Z,20.82
2022-08-17T04:13:30.560Z,20.83
2022-08-17T04:15:59.333Z,20.76
2022-08-17T04:18:28.851Z,20.84
2022-08-17T04:20:58.021Z,20.92
2022-08-17T04:23:32.798Z,21.00
2022-08-17T04:26:02.118Z,21.13
2022-08-17T04:28:31.179Z,21.25
2022-08-17T04:30:59.267Z,21.42
2022-08-17T04:33:31.100Z,21.57
2022-08-17T04:36:01.852Z,21.72
2022-08-17T04:38:31.980Z,21.83
2022-08-17T04:41:18.326Z,22.00
2022-08-17T04:43:48.812Z,22.19
2022-08-17T04:46:18.426Z,22.36
2022-08-17T04:48:49.651Z,22.54
2022-08-17T04:51:19.670Z,22.70
2022-08-17T04:53:54.120Z,22.82
2022-08-17T04:56:25.170Z,22.94
2022-08-17T04:58:55.772Z,23.15
2022-08-17T05:01:25.433Z,23.29
2022-08-17T05:03:56.545Z,23.40
2022-08-17T05:06:25.254Z,23.67
2022-08-17T05:08:54.063Z,23.77
2022-08-17T05:11:22.566Z,23.94
2022-08-17T05:13:51.218Z,24.10
2022-08-17T05:16:20.714Z,24.37
2022-08-17T05:18:49.119Z,24.43
2022-08-17T05:21:19.884Z,24.66
2022-08-17T05:23:53.903Z,24.79
2022-08-17T05:26:26.845Z,25.01
2022-08-17T05:28:59.481Z,25.28
2022-08-17T05:31:29.826Z,25.51
2022-08-17T05:33:58.493Z,25.61
2022-08-17T05:36:41.565Z,25.82
2022-08-17T05:39:16.082Z,26.05
2022-08-17T05:41:44.744Z,26.04
2022-08-17T05:44:12.834Z,26.20
2022-08-17T05:46:44.722Z,26.46
2022-08-17T05:49:16.009Z,26.67
2022-08-17T05:52:07.291Z,26.85
2022-08-17T05:54:45.328Z,26.66
2022-08-17T05:57:53.511Z,26.90
2022-08-17T06:00:30.693Z,27.11
2022-08-17T06:03:20.132Z,27.30
2022-08-17T06:06:01.415Z,27.45
2022-08-17T06:08:38.169Z,27.55
2022-08-17T06:11:16.904Z,27.65
2022-08-17T06:14:04.332Z,27.93
2022-08-17T06:16:37.463Z,28.05
2022-08-17T06:19:07.766Z,28.19
2022-08-17T06:21:40.528Z,28.39
2022-08-17T06:24:29.255Z,28.48
2022-08-17T06:27:03.118Z,28.41
2022-08-17T06:29:39.962Z,28.44
2022-08-17T06:32:12.644Z,28.59
2022-08-17T06:34:42.821Z,28.82
2022-08-17T06:37:28.824Z,29.01
2022-08-17T06:40:13.692Z,29.15
2022-08-17T06:42:54.619Z,29.33
2022-08-17T06:45:39.150Z,29.34
2022-08-17T06:48:13.982Z,29.52
2022-08-17T06:50:49.047Z,29.54
2022-08-17T06:53:25.911Z,29.72
2022-08-17T06:56:01.498Z,30.01
2022-08-17T06:58:31.624Z,30.13
2022-08-17T07:01:06.983Z,30.40
2022-08-17T07:03:40.825Z,30.26
2022-08-17T07:06:13.878Z,30.27
2022-08-17T07:08:46.159Z,30.40
2022-08-17T07:11:19.391Z,30.67
2022-08-17T07:13:55.726Z,30.67
2022-08-17T07:16:27.558Z,30.72
2022-08-17T07:18:58.024Z,30.92
2022-08-17T07:21:40.954Z,31.08
2022-08-17T07:24:30.064Z,31.26
2022-08-17T07:27:09.409Z,31.53
2022-08-17T07:29:41.865Z,31.66
2022-08-17T07:32:12.554Z,31.72
2022-08-17T07:35:16.250Z,31.66
2022-08-17T07:37:53.264Z,31.62
2022-08-17T07:40:27.097Z,31.74
2022-08-17T07:43:14.031Z,31.89
2022-08-17T07:46:32.371Z,32.07
2022-08-17T07:49:20.151Z,32.21
2022-08-17T07:52:47.612Z,32.40
2022-08-17T07:54:52.023Z,32.34
2022-08-17T07:57:35.683Z,32.59
2022-08-17T08:00:32.302Z,32.78
2022-08-17T08:03:16.111Z,32.67
2022-08-17T08:05:54.515Z,32.80
2022-08-17T08:08:28.309Z,32.93
2022-08-17T08:11:03.537Z,33.16
2022-08-17T08:13:33.363Z,33.21
2022-08-17T08:16:24.500Z,33.25
2022-08-17T08:18:57.214Z,33.20
2022-08-17T08:21:47.406Z,33.30
2022-08-17T08:24:49.517Z,33.39
2022-08-17T08:27:32.028Z,33.56
2022-08-17T08:30:06.546Z,33.59
2022-08-17T08:32:50.389Z,33.69
2022-08-17T08:35:26.935Z,33.83
2022-08-17T08:38:07.643Z,33.50
2022-08-17T08:40:51.853Z,33.36
2022-08-17T08:43:28.318Z,33.55
2022-08-17T08:46:06.106Z,33.61
2022-08-17T08:49:10.176Z,33.83
2022-08-17T08:51:53.103Z,34.08
2022-08-17T08:54:39.583Z,34.28
2022-08-17T08:57:30.747Z,34.36
2022-08-17T09:00:12.910Z,34.39
2022-08-17T09:03:03.767Z,34.50
2022-08-17T09:05:49.049Z,34.81
2022-08-17T09:08:25.475Z,34.63
2022-08-17T09:11:01.022Z,34.74
2022-08-17T09:13:40.503Z,34.86
2022-08-17T09:16:15.395Z,35.09
2022-08-17T09:19:00.068Z,35.27
2022-08-17T09:21:47.988Z,35.54
2022-08-17T09:24:24.274Z,35.73
2022-08-17T09:26:59.136Z,35.80
2022-08-17T09:29:35.334Z,35.61
2022-08-17T09:32:06.458Z,35.64
2022-08-17T09:34:39.734Z,35.72
2022-08-17T09:37:24.381Z,35.77
2022-08-17T09:40:04.244Z,35.90
2022-08-17T09:42:38.921Z,36.09
2022-08-17T09:45:18.154Z,35.90
2022-08-17T09:47:51.510Z,35.88
2022-08-17T09:51:03.266Z,36.07
2022-08-17T09:53:16.827Z,36.11
2022-08-17T09:56:07.061Z,36.02
2022-08-17T09:58:51.295Z,36.11
2022-08-17T10:01:36.849Z,36.26
2022-08-17T10:04:29.295Z,36.06
2022-08-17T10:07:03.329Z,36.07
2022-08-17T10:09:43.774Z,36.13
2022-08-17T10:12:29.842Z,36.18
2022-08-17T10:15:09.790Z,36.10
2022-08-17T10:17:44.246Z,36.23
2022-08-17T10:20:17.166Z,36.43
2022-08-17T10:23:05.535Z,36.49
2022-08-17T10:25:56.185Z,36.49
2022-08-17T10:28:30.201Z,36.24
2022-08-17T10:31:34.137Z,36.41
2022-08-17T10:34:09.554Z,36.38
2022-08-17T10:36:49.612Z,36.28
2022-08-17T10:39:30.694Z,36.33
2022-08-17T10:42:13.943Z,36.34
2022-08-17T10:45:03.054Z,36.44
2022-08-17T10:48:06.259Z,36.57
2022-08-17T10:50:49.576Z,36.46
2022-08-17T10:53:51.091Z,36.40
2022-08-17T10:56:21.875Z,36.29
2022-08-17T10:58:54.087Z,36.47
2022-08-17T11:01:45.428Z,36.38
2022-08-17T11:04:31.234Z,36.40
2022-08-17T11:07:10.072Z,36.43
2022-08-17T11:09:56.278Z,36.36
2022-08-17T11:12:37.687Z,36.46
2022-08-17T11:15:19.704Z,36.29
2022-08-17T11:18:02.300Z,36.28
2022-08-17T11:21:11.150Z,36.32
2022-08-17T11:24:14.754Z,36.41
2022-08-17T11:26:48.921Z,36.30
2022-08-17T11:29:25.730Z,36.29
2022-08-17T11:32:08.088Z,36.39
2022-08-17T11:34:41.070Z,36.17
2022-08-17T11:37:42.910Z,36.23
2022-08-17T11:40:29.025Z,36.27
2022-08-17T11:43:14.703Z,36.26
2022-08-17T11:46:05.475Z,36.27
2022-08-17T11:48:57.284Z,36.14
2022-08-17T11:51:46.590Z,36.20
2022-08-17T11:54:41.106Z,36.27
2022-08-17T11:57:54.627Z,36.13
2022-08-17T12:00:51.959Z,36.06
2022-08-17T12:03:27.529Z,35.80
2022-08-17T12:06:07.075Z,35.90
2022-08-17T12:08:43.600Z,35.83
2022-08-17T12:11:19.062Z,35.95
2022-08-17T12:14:08.302Z,35.91
2022-08-17T12:16:36.335Z,35.80
2022-08-17T12:19:06.146Z,35.90
2022-08-17T12:21:46.327Z,35.84
2022-08-17T12:24:29.323Z,35.90
2022-08-17T12:26:59.659Z,35.99
2022-08-17T12:29:35.915Z,36.07
2022-08-17T12:32:14.575Z,36.01
2022-08-17T12:34:45.442Z,36.03
2022-08-17T12:37:20.021Z,36.04
2022-08-17T12:39:59.831Z,35.93
2022-08-17T12:42:31.224Z,35.88
2022-08-17T12:44:59.939Z,35.92
2022-08-17T12:47:30.478Z,35.87
2022-08-17T12:50:29.539Z,35.80
2022-08-17T12:53:02.215Z,35.69
2022-08-17T12:55:36.766Z,35.68
2022-08-17T12:58:05.705Z,35.67
2022-08-17T13:00:35.934Z,35.71
2022-08-17T13:03:07.881Z,35.66
2022-08-17T13:05:40.087Z,35.36
2022-08-17T13:08:17.994Z,35.00
2022-08-17T13:10:56.619Z,34.67
2022-08-17T13:13:26.863Z,34.61
2022-08-17T13:15:58.580Z,34.75
2022-08-17T13:18:39.140Z,34.34
2022-08-17T13:21:08.637Z,34.51
2022-08-17T13:23:38.867Z,34.46
2022-08-17T13:26:17.300Z,34.55
2022-08-17T13:28:50.028Z,34.68
2022-08-17T13:31:33.092Z,34.74
2022-08-17T13:34:32.062Z,34.77
2022-08-17T13:37:36.029Z,34.86
2022-08-17T13:40:36.849Z,35.01
2022-08-17T13:43:05.600Z,35.13
2022-08-17T13:45:39.245Z,35.03
2022-08-17T13:48:11.938Z,34.95
2022-08-17T13:50:45.144Z,34.91
2022-08-17T13:53:24.602Z,34.81
2022-08-17T13:55:59.638Z,34.53
2022-08-17T13:58:33.773Z,34.58
2022-08-17T14:01:31.506Z,34.46
2022-08-17T14:04:02.205Z,34.44
2022-08-17T14:06:51.838Z,34.50
2022-08-17T14:09:25.022Z,34.42
2022-08-17T14:11:56.229Z,34.21
2022-08-17T14:14:24.600Z,34.01
2022-08-17T14:16:54.086Z,33.88
2022-08-17T14:19:23.045Z,33.96
2022-08-17T14:21:58.979Z,33.62
2022-08-17T14:24:32.784Z,33.67
2022-08-17T14:27:04.130Z,33.66
2022-08-17T14:29:34.403Z,33.55
2022-08-17T14:32:08.102Z,33.40
2022-08-17T14:34:36.290Z,33.47
2022-08-17T14:37:04.394Z,33.09
2022-08-17T14:39:32.964Z,32.93
2022-08-17T14:42:03.420Z,32.91
2022-08-17T14:44:31.586Z,32.96
2022-08-17T14:46:59.785Z,32.98
2022-08-17T14:49:28.406Z,33.08
2022-08-17T14:51:56.493Z,33.06
2022-08-17T14:54:33.710Z,33.16
2022-08-17T14:57:23.419Z,33.19
2022-08-17T14:59:55.213Z,32.98
2022-08-17T15:02:29.260Z,32.75
2022-08-17T15:05:00.945Z,32.51
2022-08-17T15:07:30.789Z,32.49
2022-08-17T15:10:01.247Z,32.38
2022-08-17T15:12:34.239Z,32.36
2022-08-17T15:15:04.601Z,32.24
2022-08-17T15:17:45.043Z,32.22
2022-08-17T15:20:16.491Z,32.31
2022-08-17T15:22:45.769Z,32.11
2022-08-17T15:25:15.439Z,31.89
2022-08-17T15:27:45.112Z,31.60
2022-08-17T15:30:15.226Z,31.21
2022-08-17T15:32:50.582Z,31.38
2022-08-17T15:35:28.197Z,31.44
2022-08-17T15:37:58.220Z,31.32
2022-08-17T15:40:26.315Z,31.03
2022-08-17T15:42:57.937Z,31.11
2022-08-17T15:45:28.378Z,30.83
2022-08-17T15:47:56.850Z,30.94
2022-08-17T15:50:25.093Z,30.73
2022-08-17T15:52:58.642Z,30.75
2022-08-17T15:55:28.376Z,30.88
2022-08-17T15:57:57.948Z,30.89
2022-08-17T16:00:26.144Z,30.78
2022-08-17T16:03:44.761Z,30.98
2022-08-17T16:05:42.600Z,30.85
2022-08-17T16:08:11.196Z,30.97
2022-08-17T16:10:39.582Z,30.66
2022-08-17T16:13:17.980Z,30.53
2022-08-17T16:15:53.049Z,30.48
2022-08-17T16:18:26.083Z,30.21
2022-08-17T16:20:55.089Z,30.03
2022-08-17T16:23:23.554Z,29.89
2022-08-17T16:25:53.566Z,30.03
2022-08-17T16:28:27.482Z,29.82
2022-08-17T16:31:07.913Z,29.80
2022-08-17T16:33:37.494Z,29.79
2022-08-17T16:36:06.273Z,29.61
2022-08-17T16:38:34.410Z,29.54
2022-08-17T16:41:02.642Z,29.37
2022-08-17T16:43:32.336Z,29.36
2022-08-17T16:46:01.439Z,29.25
2022-08-17T16:48:30.023Z,29.35
2022-08-17T16:51:03.418Z,29.46
2022-08-17T16:53:33.202Z,29.51
2022-08-17T16:56:01.307Z,29.66
2022-08-17T16:58:30.242Z,29.65
2022-08-17T17:00:59.993Z,29.68
2022-08-17T17:03:30.487Z,29.69
2022-08-17T17:06:13.726Z,29.70
2022-08-17T17:08:44.963Z,29.71
2022-08-17T17:11:17.983Z,29.47
2022-08-17T17:13:48.600Z,29.40
2022-08-17T17:16:35.871Z,29.18
2022-08-17T17:19:10.873Z,28.98
2022-08-17T17:21:44.870Z,28.95
2022-08-17T17:24:18.943Z,29.05
2022-08-17T17:27:01.615Z,29.05
2022-08-17T17:29:48.822Z,28.98
2022-08-17T17:32:23.470Z,28.94
2022-08-17T17:34:56.251Z,28.92
2022-08-17T17:37:30.224Z,28.85
2022-08-17T17:40:02.863Z,28.77
2022-08-17T17:42:33.274Z,28.68
2022-08-17T17:45:08.707Z,28.61
2022-08-17T17:47:38.438Z,28.46
2022-08-17T17:50:08.150Z,28.40
2022-08-17T17:52:45.458Z,28.34
2022-08-17T17:55:24.641Z,28.25
2022-08-17T17:58:03.006Z,28.15
2022-08-17T18:00:38.944Z,28.04
2022-08-17T18:03:22.083Z,27.96
2022-08-17T18:06:05.411Z,27.86
2022-08-17T18:08:45.087Z,27.76
2022-08-17T18:11:24.531Z,27.67
2022-08-17T18:14:14.692Z,27.54
2022-08-17T18:16:43.837Z,27.48
2022-08-17T18:19:15.735Z,27.41
2022-08-17T18:21:47.382Z,27.35
2022-08-17T18:24:15.719Z,27.26
2022-08-17T18:26:50.531Z,27.12
2022-08-17T18:29:31.784Z,26.77
2022-08-17T18:32:19.271Z,26.70
2022-08-17T18:34:50.641Z,26.68
2022-08-17T18:37:32.961Z,26.70
2022-08-17T18:40:02.467Z,26.69
2022-08-17T18:42:32.237Z,26.64
2022-08-17T18:45:00.302Z,26.57
2022-08-17T18:47:29.691Z,26.58
2022-08-17T18:50:25.031Z,26.57
2022-08-17T18:52:55.287Z,26.58
2022-08-17T18:55:27.895Z,26.50
2022-08-17T18:57:58.812Z,26.49
2022-08-17T19:00:36.702Z,26.47
2022-08-17T19:03:19.960Z,26.41
2022-08-17T19:05:53.295Z,26.39
2022-08-17T19:08:22.940Z,26.31
2022-08-17T19:10:54.258Z,26.26
2022-08-17T19:13:29.754Z,26.19
2022-08-17T19:16:11.410Z,26.11
2022-08-17T19:18:47.630Z,26.05
2022-08-17T19:21:22.651Z,25.95
2022-08-17T19:23:55.618Z,25.92
2022-08-17T19:26:53.637Z,25.86
2022-08-17T19:29:27.216Z,25.83
2022-08-17T19:31:56.306Z,25.75
2022-08-17T19:34:33.357Z,25.59
2022-08-17T19:37:21.621Z,25.49
2022-08-17T19:39:56.426Z,25.51
2022-08-17T19:42:34.716Z,25.54
2022-08-17T19:45:13.087Z,25.48
2022-08-17T19:47:55.399Z,25.44
2022-08-17T19:50:38.475Z,25.37
2022-08-17T19:53:18.568Z,25.35
2022-08-17T19:55:55.085Z,25.32
2022-08-17T19:58:36.573Z,25.27
2022-08-17T20:01:08.512Z,25.24
2022-08-17T20:03:42.411Z,25.19
2022-08-17T20:06:14.039Z,25.13
2022-08-17T20:08:54.986Z,25.01
2022-08-17T20:11:29.608Z,25.04
2022-08-17T20:14:04.483Z,24.96
2022-08-17T20:16:34.345Z,24.90
2022-08-17T20:19:06.245Z,24.68
2022-08-17T20:21:40.211Z,24.41
2022-08-17T20:24:21.092Z,24.59
2022-08-17T20:26:58.447Z,24.72
2022-08-17T20:29:40.059Z,24.75
2022-08-17T20:32:22.106Z,24.67
2022-08-17T20:35:01.123Z,24.64
2022-08-17T20:37:34.403Z,24.68
2022-08-17T20:40:23.047Z,24.65
2022-08-17T20:42:51.080Z,24.63
2022-08-17T20:45:58.938Z,24.61
2022-08-17T20:48:38.455Z,24.54
2022-08-17T20:51:26.037Z,24.58
2022-08-17T20:54:30.380Z,24.53
2022-08-17T20:57:01.053Z,24.52
2022-08-17T20:59:57.708Z,24.47
2022-08-17T21:02:28.965Z,24.43
2022-08-17T21:05:08.090Z,24.34
2022-08-17T21:07:59.050Z,24.31
2022-08-17T21:10:37.335Z,24.28
2022-08-17T21:13:56.108Z,24.23
2022-08-17T21:16:33.818Z,24.17
2022-08-17T21:19:16.981Z,24.11
2022-08-17T21:21:58.362Z,24.10
2022-08-17T21:24:36.627Z,24.09
2022-08-17T21:27:14.124Z,24.05
2022-08-17T21:29:54.318Z,24.01
2022-08-17T21:32:31.461Z,23.94
2022-08-17T21:35:23.261Z,23.97
2022-08-17T21:37:54.925Z,23.90
2022-08-17T21:40:26.751Z,23.83
2022-08-17T21:42:58.359Z,23.80
2022-08-17T21:45:30.292Z,23.76
2022-08-17T21:48:14.196Z,23.78
2022-08-17T21:50:45.886Z,23.74
2022-08-17T21:53:25.375Z,23.76
2022-08-17T21:55:55.174Z,23.63
2022-08-17T21:58:30.501Z,23.73
2022-08-17T22:01:22.380Z,23.73
2022-08-17T22:04:01.849Z,23.71
2022-08-17T22:06:34.740Z,23.73
2022-08-17T22:09:08.322Z,23.70
2022-08-17T22:11:48.370Z,23.64
2022-08-17T22:14:18.606Z,23.62
2022-08-17T22:16:50.747Z,23.62
2022-08-17T22:19:21.197Z,23.66
2022-08-17T22:21:49.326Z,23.63
2022-08-17T22:24:21.579Z,23.63
2022-08-17T22:27:02.997Z,23.50
2022-08-17T22:29:57.797Z,23.61
2022-08-17T22:32:42.648Z,23.57
2022-08-17T22:35:26.115Z,23.58
2022-08-17T22:37:54.167Z,23.58
2022-08-17T22:40:27.358Z,23.49
2022-08-17T22:42:57.284Z,23.30
2022-08-17T22:45:26.001Z,23.41
2022-08-17T22:47:56.667Z,23.38
2022-08-17T22:50:30.520Z,23.32
2022-08-17T22:53:19.672Z,23.32
2022-08-17T22:56:09.795Z,23.29
2022-08-17T22:59:02.234Z,23.21
2022-08-17T23:01:32.673Z,23.14
2022-08-17T23:04:03.022Z,23.07
2022-08-17T23:06:33.955Z,23.05
2022-08-17T23:09:04.288Z,23.00
2022-08-17T23:11:49.547Z,22.99
2022-08-17T23:14:19.921Z,22.92
2022-08-17T23:16:48.804Z,22.89
2022-08-17T23:19:18.893Z,22.83
2022-08-17T23:21:52.674Z,22.72
2022-08-17T23:24:25.418Z,22.53
2022-08-17T23:26:53.976Z,22.59
2022-08-17T23:29:22.632Z,22.55
2022-08-17T23:31:51.838Z,22.49
2022-08-17T23:34:20.387Z,22.54
2022-08-17T23:36:52.698Z,22.54
2022-08-17T23:39:24.723Z,22.52
2022-08-17T23:41:56.411Z,22.52
2022-08-17T23:44:24.637Z,22.42
2022-08-17T23:46:53.317Z,22.40
2022-08-17T23:49:21.370Z,22.41
2022-08-17T23:51:50.843Z,22.36
2022-08-17T23:54:23.941Z,22.20
2022-08-17T23:56:52.055Z,22.27
2022-08-17T23:59:22.594Z,22.27
